Terminal Aerodrome Forecast
Issued by NWS

Home | Current Version | Previous Version | Graphics & Text | Print | Product List | Glossary On
Versions: 1 2 3 4 5 6 7 8 9 10 11 12 13 14 15 16 17
000
FTUS45 KGGW 221908 AAA
TAFOLF
TAF AMD
KOLF 221908Z 2219/2318 03010KT P6SM SCT050 BKN090
      TEMPO 2219/2222 5SM -SHSN BKN040
     FM222300 05005KT P6SM OVC035
     FM230400 09004KT P6SM SCT025 OVC035
     FM231400 07005KT P6SM SCT015 OVC025=

USA.gov is the U.S. government's official web portal to all federal, state and local government web resources and services.